sensor_id;sensor_type;location;lat;lon;timestamp;temperature;humidity
4293;DHT22;2160;51.172;6.808;2023-05-07T04:00:34;18.20;99.90
4293;DHT22;2160;51.172;6.808;2023-05-07T04:03:11;18.10;99.90
4293;DHT22;2160;51.172;6.808;2023-05-07T04:05:38;18.20;99.90
4293;DHT22;2160;51.172;6.808;2023-05-07T04:08:05;18.20;99.90
4293;DHT22;2160;51.172;6.808;2023-05-07T04:10:38;18.20;99.90
4293;DHT22;2160;51.172;6.808;2023-05-07T04:13:08;18.20;99.90
4293;DHT22;2160;51.172;6.808;2023-05-07T04:15:37;18.10;99.90
4293;DHT22;2160;51.172;6.808;2023-05-07T04:18:08;18.10;99.90
4293;DHT22;2160;51.172;6.808;2023-05-07T04:20:36;18.20;99.90
4293;DHT22;2160;51.172;6.808;2023-05-07T04:23:05;18.10;99.90
4293;DHT22;2160;51.172;6.808;2023-05-07T04:25:33;18.10;99.90
4293;DHT22;2160;51.172;6.808;2023-05-07T04:28:07;18.10;99.90
4293;DHT22;2160;51.172;6.808;2023-05-07T04:30:34;18.10;99.90
4293;DHT22;2160;51.172;6.808;2023-05-07T04:33:05;18.10;99.90
4293;DHT22;2160;51.172;6.808;2023-05-07T04:35:33;18.10;99.90
4293;DHT22;2160;51.172;6.808;2023-05-07T04:38:01;18.20;99.90
4293;DHT22;2160;51.172;6.808;2023-05-07T04:40:29;18.20;99.90
4293;DHT22;2160;51.172;6.808;2023-05-07T04:42:56;18.20;99.90
4293;DHT22;2160;51.172;6.808;2023-05-07T04:45:23;18.30;99.90
4293;DHT22;2160;51.172;6.808;2023-05-07T04:47:53;18.20;99.90
4293;DHT22;2160;51.172;6.808;2023-05-07T04:50:21;18.20;99.90
4293;DHT22;2160;51.172;6.808;2023-05-07T04:52:52;18.20;99.90
4293;DHT22;2160;51.172;6.808;2023-05-07T04:55:20;18.20;99.90
4293;DHT22;2160;51.172;6.808;2023-05-07T04:57:47;18.10;99.90
4293;DHT22;2160;51.172;6.808;2023-05-07T05:00:15;18.10;99.90
4293;DHT22;2160;51.172;6.808;2023-05-07T05:02:45;18.10;99.90
4293;DHT22;2160;51.172;6.808;2023-05-07T05:05:17;18.10;99.90
4293;DHT22;2160;51.172;6.808;2023-05-07T05:07:46;18.10;99.90
4293;DHT22;2160;51.172;6.808;2023-05-07T05:10:13;18.20;99.90
4293;DHT22;2160;51.172;6.808;2023-05-07T05:12:42;18.20;99.90
4293;DHT22;2160;51.172;6.808;2023-05-07T05:15:11;18.20;99.90
4293;DHT22;2160;51.172;6.808;2023-05-07T05:17:38;18.30;99.90
4293;DHT22;2160;51.172;6.808;2023-05-07T05:20:06;18.30;99.90
4293;DHT22;2160;51.172;6.808;2023-05-07T05:22:35;18.40;99.90
4293;DHT22;2160;51.172;6.808;2023-05-07T05:25:05;18.40;99.90
4293;DHT22;2160;51.172;6.808;2023-05-07T05:27:32;18.40;99.90
4293;DHT22;2160;51.172;6.808;2023-05-07T05:29:59;18.40;99.90
4293;DHT22;2160;51.172;6.808;2023-05-07T05:32:27;18.50;99.90
4293;DHT22;2160;51.172;6.808;2023-05-07T05:34:56;18.50;99.90
4293;DHT22;2160;51.172;6.808;2023-05-07T05:37:24;18.60;99.90
4293;DHT22;2160;51.172;6.808;2023-05-07T05:39:52;18.60;99.90
4293;DHT22;2160;51.172;6.808;2023-05-07T05:42:22;18.60;99.90
4293;DHT22;2160;51.172;6.808;2023-05-07T05:44:49;18.60;99.90
4293;DHT22;2160;51.172;6.808;2023-05-07T05:47:16;18.60;99.90
4293;DHT22;2160;51.172;6.808;2023-05-07T05:49:43;18.70;99.90
4293;DHT22;2160;51.172;6.808;2023-05-07T05:52:14;18.80;99.90
4293;DHT22;2160;51.172;6.808;2023-05-07T05:54:42;18.70;99.90
4293;DHT22;2160;51.172;6.808;2023-05-07T05:57:10;18.60;99.90
4293;DHT22;2160;51.172;6.808;2023-05-07T05:59:38;18.70;99.90
4293;DHT22;2160;51.172;6.808;2023-05-07T06:02:06;18.70;99.90
4293;DHT22;2160;51.172;6.808;2023-05-07T06:04:33;18.80;99.90
4293;DHT22;2160;51.172;6.808;2023-05-07T06:07:01;18.80;99.90
4293;DHT22;2160;51.172;6.808;2023-05-07T06:09:28;18.90;99.90
4293;DHT22;2160;51.172;6.808;2023-05-07T06:11:55;19.00;99.90
4293;DHT22;2160;51.172;6.808;2023-05-07T06:14:22;19.00;99.90
4293;DHT22;2160;51.172;6.808;2023-05-07T06:16:51;19.00;99.90
4293;DHT22;2160;51.172;6.808;2023-05-07T06:19:18;19.00;99.90
4293;DHT22;2160;51.172;6.808;2023-05-07T06:21:49;19.00;99.90
4293;DHT22;2160;51.172;6.808;2023-05-07T06:24:16;19.00;99.90
4293;DHT22;2160;51.172;6.808;2023-05-07T06:26:43;19.00;99.90
4293;DHT22;2160;51.172;6.808;2023-05-07T06:29:10;19.10;99.90
4293;DHT22;2160;51.172;6.808;2023-05-07T06:31:39;19.20;99.90
4293;DHT22;2160;51.172;6.808;2023-05-07T06:34:10;19.20;99.90
4293;DHT22;2160;51.172;6.808;2023-05-07T06:36:40;19.20;99.90
4293;DHT22;2160;51.172;6.808;2023-05-07T06:39:23;19.30;99.90
4293;DHT22;2160;51.172;6.808;2023-05-07T06:41:51;19.30;99.90
4293;DHT22;2160;51.172;6.808;2023-05-07T06:44:30;19.40;99.90
4293;DHT22;2160;51.172;6.808;2023-05-07T06:47:09;19.10;99.90
4293;DHT22;2160;51.172;6.808;2023-05-07T06:49:39;19.00;99.90
4293;DHT22;2160;51.172;6.808;2023-05-07T06:52:06;19.10;99.90
4293;DHT22;2160;51.172;6.808;2023-05-07T06:54:33;19.30;99.90
4293;DHT22;2160;51.172;6.808;2023-05-07T06:57:00;19.40;99.90
4293;DHT22;2160;51.172;6.808;2023-05-07T06:59:28;19.50;99.90
4293;DHT22;2160;51.172;6.808;2023-05-07T07:01:55;19.60;99.90
4293;DHT22;2160;51.172;6.808;2023-05-07T07:04:22;19.60;99.90
4293;DHT22;2160;51.172;6.808;2023-05-07T07:06:59;19.60;99.90
4293;DHT22;2160;51.172;6.808;2023-05-07T07:09:27;19.60;99.90
4293;DHT22;2160;51.172;6.808;2023-05-07T07:11:54;19.60;99.90
4293;DHT22;2160;51.172;6.808;2023-05-07T07:14:21;19.70;99.90
4293;DHT22;2160;51.172;6.808;2023-05-07T07:16:51;19.80;99.90
4293;DHT22;2160;51.172;6.808;2023-05-07T07:19:19;19.70;99.90
4293;DHT22;2160;51.172;6.808;2023-05-07T07:21:51;19.70;99.90
4293;DHT22;2160;51.172;6.808;2023-05-07T07:24:19;19.90;99.90
4293;DHT22;2160;51.172;6.808;2023-05-07T07:26:49;20.00;99.90
4293;DHT22;2160;51.172;6.808;2023-05-07T07:29:17;19.90;99.90
4293;DHT22;2160;51.172;6.808;2023-05-07T07:31:46;19.90;99.90
4293;DHT22;2160;51.172;6.808;2023-05-07T07:34:13;19.80;99.90
4293;DHT22;2160;51.172;6.808;2023-05-07T07:36:40;19.70;99.90
4293;DHT22;2160;51.172;6.808;2023-05-07T07:39:08;19.80;99.90
4293;DHT22;2160;51.172;6.808;2023-05-07T07:41:37;19.70;99.90
4293;DHT22;2160;51.172;6.808;2023-05-07T07:44:05;19.90;99.90
4293;DHT22;2160;51.172;6.808;2023-05-07T07:46:35;20.10;99.90
4293;DHT22;2160;51.172;6.808;2023-05-07T07:49:02;20.20;99.90
4293;DHT22;2160;51.172;6.808;2023-05-07T07:51:30;20.30;99.90
4293;DHT22;2160;51.172;6.808;2023-05-07T07:53:59;20.20;99.90
4293;DHT22;2160;51.172;6.808;2023-05-07T07:56:28;20.40;99.90
4293;DHT22;2160;51.172;6.808;2023-05-07T07:58:56;20.30;99.90
4293;DHT22;2160;51.172;6.808;2023-05-07T08:01:24;20.10;99.90
4293;DHT22;2160;51.172;6.808;2023-05-07T08:03:52;19.70;99.90
4293;DHT22;2160;51.172;6.808;2023-05-07T08:06:20;19.70;99.90
4293;DHT22;2160;51.172;6.808;2023-05-07T08:08:47;20.00;99.90
4293;DHT22;2160;51.172;6.808;2023-05-07T08:11:16;19.90;99.90
4293;DHT22;2160;51.172;6.808;2023-05-07T08:13:43;20.10;99.90
4293;DHT22;2160;51.172;6.808;2023-05-07T08:16:12;20.40;99.90
4293;DHT22;2160;51.172;6.808;2023-05-07T08:18:39;20.70;99.90
4293;DHT22;2160;51.172;6.808;2023-05-07T08:21:06;20.90;99.90
4293;DHT22;2160;51.172;6.808;2023-05-07T08:23:33;21.10;99.90
4293;DHT22;2160;51.172;6.808;2023-05-07T08:26:01;20.90;99.90
4293;DHT22;2160;51.172;6.808;2023-05-07T08:28:29;20.90;99.90
4293;DHT22;2160;51.172;6.808;2023-05-07T08:30:56;20.90;99.90
4293;DHT22;2160;51.172;6.808;2023-05-07T08:33:27;21.10;99.90
4293;DHT22;2160;51.172;6.808;2023-05-07T08:35:54;21.30;99.90
4293;DHT22;2160;51.172;6.808;2023-05-07T08:38:21;21.40;99.90
4293;DHT22;2160;51.172;6.808;2023-05-07T08:40:48;21.40;99.90
4293;DHT22;2160;51.172;6.808;2023-05-07T08:43:19;21.60;99.90
4293;DHT22;2160;51.172;6.808;2023-05-07T08:45:49;21.60;99.90
4293;DHT22;2160;51.172;6.808;2023-05-07T08:48:21;21.60;99.90
4293;DHT22;2160;51.172;6.808;2023-05-07T08:50:57;21.50;99.90
4293;DHT22;2160;51.172;6.808;2023-05-07T08:53:25;21.70;99.90
4293;DHT22;2160;51.172;6.808;2023-05-07T08:55:53;21.90;99.90
4293;DHT22;2160;51.172;6.808;2023-05-07T08:58:20;22.10;99.90
4293;DHT22;2160;51.172;6.808;2023-05-07T09:00:47;22.20;99.90
4293;DHT22;2160;51.172;6.808;2023-05-07T09:03:15;22.20;99.90
4293;DHT22;2160;51.172;6.808;2023-05-07T09:05:46;22.00;99.90
4293;DHT22;2160;51.172;6.808;2023-05-07T09:08:16;21.90;99.90
4293;DHT22;2160;51.172;6.808;2023-05-07T09:10:45;22.00;99.90
4293;DHT22;2160;51.172;6.808;2023-05-07T09:13:14;22.20;99.90
4293;DHT22;2160;51.172;6.808;2023-05-07T09:15:44;22.30;99.90
4293;DHT22;2160;51.172;6.808;2023-05-07T09:18:12;22.30;99.90
4293;DHT22;2160;51.172;6.808;2023-05-07T09:20:40;21.90;99.90
4293;DHT22;2160;51.172;6.808;2023-05-07T09:23:09;21.70;99.90
4293;DHT22;2160;51.172;6.808;2023-05-07T09:25:38;22.00;99.90
4293;DHT22;2160;51.172;6.808;2023-05-07T09:28:14;22.20;99.90
4293;DHT22;2160;51.172;6.808;2023-05-07T09:30:41;22.40;99.90
4293;DHT22;2160;51.172;6.808;2023-05-07T09:33:11;22.60;99.90
4293;DHT22;2160;51.172;6.808;2023-05-07T09:35:45;22.60;99.90
4293;DHT22;2160;51.172;6.808;2023-05-07T09:38:18;22.80;99.90
4293;DHT22;2160;51.172;6.808;2023-05-07T09:41:01;22.60;99.90
4293;DHT22;2160;51.172;6.808;2023-05-07T09:43:32;22.80;99.90
4293;DHT22;2160;51.172;6.808;2023-05-07T09:46:02;22.90;99.90
4293;DHT22;2160;51.172;6.808;2023-05-07T09:48:30;22.80;99.90
4293;DHT22;2160;51.172;6.808;2023-05-07T09:51:02;23.00;99.90
4293;DHT22;2160;51.172;6.808;2023-05-07T09:53:33;22.70;99.90
4293;DHT22;2160;51.172;6.808;2023-05-07T09:56:05;22.90;99.90
4293;DHT22;2160;51.172;6.808;2023-05-07T09:58:33;23.10;99.90
4293;DHT22;2160;51.172;6.808;2023-05-07T10:01:04;23.20;99.90
4293;DHT22;2160;51.172;6.808;2023-05-07T10:03:33;23.20;99.90
4293;DHT22;2160;51.172;6.808;2023-05-07T10:06:05;23.40;99.90
4293;DHT22;2160;51.172;6.808;2023-05-07T10:08:33;23.50;99.90
4293;DHT22;2160;51.172;6.808;2023-05-07T10:11:03;23.70;99.90
4293;DHT22;2160;51.172;6.808;2023-05-07T10:13:32;23.70;99.90
4293;DHT22;2160;51.172;6.808;2023-05-07T10:16:01;23.60;99.90
4293;DHT22;2160;51.172;6.808;2023-05-07T10:18:33;23.70;99.90
4293;DHT22;2160;51.172;6.808;2023-05-07T10:21:16;23.70;99.90
4293;DHT22;2160;51.172;6.808;2023-05-07T10:23:48;23.50;99.90
4293;DHT22;2160;51.172;6.808;2023-05-07T10:26:17;23.40;99.90
4293;DHT22;2160;51.172;6.808;2023-05-07T10:28:50;23.60;99.90
4293;DHT22;2160;51.172;6.808;2023-05-07T10:34:25;23.80;99.90
4293;DHT22;2160;51.172;6.808;2023-05-07T10:36:55;23.90;99.90
4293;DHT22;2160;51.172;6.808;2023-05-07T10:39:24;24.10;99.90
4293;DHT22;2160;51.172;6.808;2023-05-07T10:41:51;24.30;99.90
4293;DHT22;2160;51.172;6.808;2023-05-07T10:44:29;24.60;99.90
4293;DHT22;2160;51.172;6.808;2023-05-07T10:47:07;24.90;99.90
4293;DHT22;2160;51.172;6.808;2023-05-07T10:49:37;24.70;99.90
4293;DHT22;2160;51.172;6.808;2023-05-07T10:52:15;24.70;99.90
4293;DHT22;2160;51.172;6.808;2023-05-07T10:55:20;24.80;99.90
4293;DHT22;2160;51.172;6.808;2023-05-07T10:58:25;24.90;99.90
4293;DHT22;2160;51.172;6.808;2023-05-07T11:01:00;24.90;99.90
4293;DHT22;2160;51.172;6.808;2023-05-07T11:03:36;24.50;99.90
4293;DHT22;2160;51.172;6.808;2023-05-07T11:06:25;24.60;99.90
4293;DHT22;2160;51.172;6.808;2023-05-07T11:08:58;24.90;99.90
4293;DHT22;2160;51.172;6.808;2023-05-07T11:11:52;25.00;99.90
4293;DHT22;2160;51.172;6.808;2023-05-07T11:14:44;24.90;99.90
4293;DHT22;2160;51.172;6.808;2023-05-07T11:17:23;24.90;99.90
4293;DHT22;2160;51.172;6.808;2023-05-07T11:19:57;24.80;99.90
4293;DHT22;2160;51.172;6.808;2023-05-07T11:22:47;24.60;99.90
4293;DHT22;2160;51.172;6.808;2023-05-07T11:25:25;24.60;99.90
4293;DHT22;2160;51.172;6.808;2023-05-07T11:28:19;25.00;99.90
4293;DHT22;2160;51.172;6.808;2023-05-07T11:30:54;25.10;99.90
4293;DHT22;2160;51.172;6.808;2023-05-07T11:33:24;24.90;99.90
4293;DHT22;2160;51.172;6.808;2023-05-07T11:35:53;24.70;99.90
4293;DHT22;2160;51.172;6.808;2023-05-07T11:38:23;24.90;99.90
4293;DHT22;2160;51.172;6.808;2023-05-07T11:40:50;25.10;99.90
4293;DHT22;2160;51.172;6.808;2023-05-07T11:43:17;25.20;99.90
4293;DHT22;2160;51.172;6.808;2023-05-07T11:45:44;25.50;99.90
4293;DHT22;2160;51.172;6.808;2023-05-07T11:48:12;25.20;99.90
4293;DHT22;2160;51.172;6.808;2023-05-07T11:50:51;25.40;99.90
4293;DHT22;2160;51.172;6.808;2023-05-07T11:53:19;25.50;99.90
4293;DHT22;2160;51.172;6.808;2023-05-07T11:55:46;25.50;99.90
4293;DHT22;2160;51.172;6.808;2023-05-07T11:58:20;25.70;99.90
4293;DHT22;2160;51.172;6.808;2023-05-07T12:00:48;25.70;99.90
4293;DHT22;2160;51.172;6.808;2023-05-07T12:03:16;25.70;99.90
4293;DHT22;2160;51.172;6.808;2023-05-07T12:06:08;25.60;99.90
4293;DHT22;2160;51.172;6.808;2023-05-07T12:08:37;25.60;99.90
4293;DHT22;2160;51.172;6.808;2023-05-07T12:11:07;25.80;99.90
4293;DHT22;2160;51.172;6.808;2023-05-07T12:13:34;25.90;99.90
4293;DHT22;2160;51.172;6.808;2023-05-07T12:16:01;25.90;99.90
4293;DHT22;2160;51.172;6.808;2023-05-07T12:18:29;25.80;99.90
4293;DHT22;2160;51.172;6.808;2023-05-07T12:20:57;26.00;99.90
4293;DHT22;2160;51.172;6.808;2023-05-07T12:23:26;25.80;99.90
4293;DHT22;2160;51.172;6.808;2023-05-07T12:25:53;25.80;99.90
4293;DHT22;2160;51.172;6.808;2023-05-07T12:28:20;25.90;99.90
4293;DHT22;2160;51.172;6.808;2023-05-07T12:30:48;25.90;99.90
4293;DHT22;2160;51.172;6.808;2023-05-07T12:33:16;25.90;99.90
4293;DHT22;2160;51.172;6.808;2023-05-07T12:35:44;25.50;99.90
4293;DHT22;2160;51.172;6.808;2023-05-07T12:38:13;25.40;99.90
4293;DHT22;2160;51.172;6.808;2023-05-07T12:40:43;25.30;99.90
4293;DHT22;2160;51.172;6.808;2023-05-07T12:43:15;25.20;99.90
4293;DHT22;2160;51.172;6.808;2023-05-07T12:45:44;25.10;99.90
4293;DHT22;2160;51.172;6.808;2023-05-07T12:48:11;25.20;99.90
4293;DHT22;2160;51.172;6.808;2023-05-07T12:50:38;25.10;99.90
4293;DHT22;2160;51.172;6.808;2023-05-07T12:53:06;25.10;99.90
4293;DHT22;2160;51.172;6.808;2023-05-07T12:55:42;25.20;99.90
4293;DHT22;2160;51.172;6.808;2023-05-07T12:58:18;25.10;99.90
4293;DHT22;2160;51.172;6.808;2023-05-07T13:00:48;25.00;99.90
4293;DHT22;2160;51.172;6.808;2023-05-07T13:03:29;25.10;99.90
4293;DHT22;2160;51.172;6.808;2023-05-07T13:05:58;25.20;99.90
4293;DHT22;2160;51.172;6.808;2023-05-07T13:08:26;25.20;99.90
4293;DHT22;2160;51.172;6.808;2023-05-07T13:10:56;25.30;99.90
4293;DHT22;2160;51.172;6.808;2023-05-07T13:13:23;25.30;99.90
4293;DHT22;2160;51.172;6.808;2023-05-07T13:15:50;25.60;99.90
4293;DHT22;2160;51.172;6.808;2023-05-07T13:18:17;25.60;99.90
4293;DHT22;2160;51.172;6.808;2023-05-07T13:20:44;25.60;99.90
4293;DHT22;2160;51.172;6.808;2023-05-07T13:23:11;25.80;99.90
4293;DHT22;2160;51.172;6.808;2023-05-07T13:25:38;25.70;99.90
4293;DHT22;2160;51.172;6.808;2023-05-07T13:28:07;25.50;99.90
4293;DHT22;2160;51.172;6.808;2023-05-07T13:30:34;25.50;99.90
4293;DHT22;2160;51.172;6.808;2023-05-07T13:33:01;25.60;99.90
4293;DHT22;2160;51.172;6.808;2023-05-07T13:35:28;25.70;99.90
4293;DHT22;2160;51.172;6.808;2023-05-07T13:37:55;25.70;99.90
4293;DHT22;2160;51.172;6.808;2023-05-07T13:40:23;25.70;99.90
4293;DHT22;2160;51.172;6.808;2023-05-07T13:42:50;25.70;99.90
4293;DHT22;2160;51.172;6.808;2023-05-07T13:45:19;25.60;99.90
4293;DHT22;2160;51.172;6.808;2023-05-07T13:47:46;25.50;99.90
4293;DHT22;2160;51.172;6.808;2023-05-07T13:50:15;25.30;99.90
4293;DHT22;2160;51.172;6.808;2023-05-07T13:52:46;25.20;99.90
4293;DHT22;2160;51.172;6.808;2023-05-07T13:55:16;24.90;99.90
4293;DHT22;2160;51.172;6.808;2023-05-07T13:57:45;24.80;99.90
4293;DHT22;2160;51.172;6.808;2023-05-07T14:00:12;24.60;99.90
4293;DHT22;2160;51.172;6.808;2023-05-07T14:02:44;24.40;99.90
4293;DHT22;2160;51.172;6.808;2023-05-07T14:05:11;24.00;99.90
4293;DHT22;2160;51.172;6.808;2023-05-07T14:07:40;23.90;99.90
4293;DHT22;2160;51.172;6.808;2023-05-07T14:10:07;23.70;99.90
4293;DHT22;2160;51.172;6.808;2023-05-07T14:12:35;23.70;99.90
4293;DHT22;2160;51.172;6.808;2023-05-07T14:15:02;23.50;99.90
4293;DHT22;2160;51.172;6.808;2023-05-07T14:17:29;23.60;99.90
4293;DHT22;2160;51.172;6.808;2023-05-07T14:19:57;23.50;99.90
4293;DHT22;2160;51.172;6.808;2023-05-07T14:22:24;23.50;99.90
4293;DHT22;2160;51.172;6.808;2023-05-07T14:24:51;23.50;99.90
4293;DHT22;2160;51.172;6.808;2023-05-07T14:27:18;23.40;99.90
4293;DHT22;2160;51.172;6.808;2023-05-07T14:29:45;23.40;99.90
4293;DHT22;2160;51.172;6.808;2023-05-07T14:32:16;23.30;99.90
4293;DHT22;2160;51.172;6.808;2023-05-07T14:34:43;23.10;99.90
4293;DHT22;2160;51.172;6.808;2023-05-07T14:37:12;22.90;99.90
4293;DHT22;2160;51.172;6.808;2023-05-07T14:39:39;22.50;99.90
4293;DHT22;2160;51.172;6.808;2023-05-07T14:42:07;22.50;99.90
4293;DHT22;2160;51.172;6.808;2023-05-07T14:44:34;22.50;99.90
4293;DHT22;2160;51.172;6.808;2023-05-07T14:47:01;22.50;99.90
4293;DHT22;2160;51.172;6.808;2023-05-07T14:49:28;22.60;99.90
4293;DHT22;2160;51.172;6.808;2023-05-07T14:51:57;22.50;99.90
4293;DHT22;2160;51.172;6.808;2023-05-07T14:54:26;22.50;99.90
4293;DHT22;2160;51.172;6.808;2023-05-07T14:56:53;22.40;99.90
4293;DHT22;2160;51.172;6.808;2023-05-07T14:59:20;22.30;99.90
4293;DHT22;2160;51.172;6.808;2023-05-07T15:01:48;22.10;99.90
4293;DHT22;2160;51.172;6.808;2023-05-07T15:04:15;22.00;99.90
4293;DHT22;2160;51.172;6.808;2023-05-07T15:06:42;22.00;99.90
4293;DHT22;2160;51.172;6.808;2023-05-07T15:09:09;22.10;99.90
4293;DHT22;2160;51.172;6.808;2023-05-07T15:11:37;22.10;99.90
4293;DHT22;2160;51.172;6.808;2023-05-07T15:14:05;22.20;99.90
4293;DHT22;2160;51.172;6.808;2023-05-07T15:16:32;22.30;99.90
4293;DHT22;2160;51.172;6.808;2023-05-07T15:18:59;22.20;99.90
4293;DHT22;2160;51.172;6.808;2023-05-07T15:21:26;22.30;99.90
4293;DHT22;2160;51.172;6.808;2023-05-07T15:23:53;22.40;99.90
4293;DHT22;2160;51.172;6.808;2023-05-07T15:26:20;22.40;99.90
4293;DHT22;2160;51.172;6.808;2023-05-07T15:28:48;22.40;99.90
4293;DHT22;2160;51.172;6.808;2023-05-07T15:31:15;22.40;99.90
4293;DHT22;2160;51.172;6.808;2023-05-07T15:33:43;22.10;99.90
4293;DHT22;2160;51.172;6.808;2023-05-07T15:36:10;22.20;99.90
4293;DHT22;2160;51.172;6.808;2023-05-07T15:38:37;22.30;99.90
4293;DHT22;2160;51.172;6.808;2023-05-07T15:41:04;22.40;99.90
4293;DHT22;2160;51.172;6.808;2023-05-07T15:43:31;22.50;99.90
4293;DHT22;2160;51.172;6.808;2023-05-07T15:46:02;22.50;99.90
4293;DHT22;2160;51.172;6.808;2023-05-07T15:48:29;22.60;99.90
4293;DHT22;2160;51.172;6.808;2023-05-07T15:50:56;22.60;99.90
4293;DHT22;2160;51.172;6.808;2023-05-07T15:53:23;22.60;99.90
4293;DHT22;2160;51.172;6.808;2023-05-07T15:55:53;22.60;99.90
4293;DHT22;2160;51.172;6.808;2023-05-07T15:58:20;22.70;99.90
4293;DHT22;2160;51.172;6.808;2023-05-07T16:00:47;22.70;99.90
4293;DHT22;2160;51.172;6.808;2023-05-07T16:03:15;22.70;99.90
4293;DHT22;2160;51.172;6.808;2023-05-07T16:05:43;22.50;99.90
4293;DHT22;2160;51.172;6.808;2023-05-07T16:08:10;22.40;99.90
4293;DHT22;2160;51.172;6.808;2023-05-07T16:10:37;22.60;99.90
4293;DHT22;2160;51.172;6.808;2023-05-07T16:13:04;22.70;99.90
4293;DHT22;2160;51.172;6.808;2023-05-07T16:15:31;22.70;99.90
4293;DHT22;2160;51.172;6.808;2023-05-07T16:17:58;22.80;99.90
4293;DHT22;2160;51.172;6.808;2023-05-07T16:20:31;22.80;99.90
4293;DHT22;2160;51.172;6.808;2023-05-07T16:22:58;22.80;99.90
4293;DHT22;2160;51.172;6.808;2023-05-07T16:25:25;22.80;99.90
4293;DHT22;2160;51.172;6.808;2023-05-07T16:27:52;22.90;99.90
4293;DHT22;2160;51.172;6.808;2023-05-07T16:30:19;23.00;99.90
4293;DHT22;2160;51.172;6.808;2023-05-07T16:32:46;23.10;99.90
4293;DHT22;2160;51.172;6.808;2023-05-07T16:35:13;23.00;99.90
4293;DHT22;2160;51.172;6.808;2023-05-07T16:37:42;23.00;99.90
4293;DHT22;2160;51.172;6.808;2023-05-07T16:40:09;22.90;99.90
4293;DHT22;2160;51.172;6.808;2023-05-07T16:42:37;23.00;99.90
4293;DHT22;2160;51.172;6.808;2023-05-07T16:45:05;23.00;99.90
4293;DHT22;2160;51.172;6.808;2023-05-07T16:47:37;22.90;99.90
4293;DHT22;2160;51.172;6.808;2023-05-07T16:50:04;22.90;99.90
4293;DHT22;2160;51.172;6.808;2023-05-07T16:52:32;22.80;99.90
4293;DHT22;2160;51.172;6.808;2023-05-07T16:55:00;22.90;99.90
4293;DHT22;2160;51.172;6.808;2023-05-07T16:57:28;23.00;99.90
4293;DHT22;2160;51.172;6.808;2023-05-07T16:59:56;23.00;99.90
4293;DHT22;2160;51.172;6.808;2023-05-07T17:02:24;23.10;99.90
4293;DHT22;2160;51.172;6.808;2023-05-07T17:04:51;23.10;99.90
4293;DHT22;2160;51.172;6.808;2023-05-07T17:07:18;23.10;99.90
4293;DHT22;2160;51.172;6.808;2023-05-07T17:09:45;23.10;99.90
4293;DHT22;2160;51.172;6.808;2023-05-07T17:12:18;23.10;99.90
4293;DHT22;2160;51.172;6.808;2023-05-07T17:14:45;23.10;99.90
4293;DHT22;2160;51.172;6.808;2023-05-07T17:17:12;23.20;99.90
4293;DHT22;2160;51.172;6.808;2023-05-07T17:19:39;23.10;99.90
4293;DHT22;2160;51.172;6.808;2023-05-07T17:22:10;23.10;99.90
4293;DHT22;2160;51.172;6.808;2023-05-07T17:24:37;23.20;99.90
4293;DHT22;2160;51.172;6.808;2023-05-07T17:27:04;23.20;99.90
4293;DHT22;2160;51.172;6.808;2023-05-07T17:29:34;23.10;99.90
4293;DHT22;2160;51.172;6.808;2023-05-07T17:32:02;23.10;99.90
4293;DHT22;2160;51.172;6.808;2023-05-07T17:34:28;23.10;99.90
4293;DHT22;2160;51.172;6.808;2023-05-07T17:36:57;23.10;99.90
4293;DHT22;2160;51.172;6.808;2023-05-07T17:39:24;23.10;99.90
4293;DHT22;2160;51.172;6.808;2023-05-07T17:41:51;23.10;99.90
4293;DHT22;2160;51.172;6.808;2023-05-07T17:44:18;23.10;99.90
4293;DHT22;2160;51.172;6.808;2023-05-07T17:49:52;23.10;99.90
4293;DHT22;2160;51.172;6.808;2023-05-07T17:52:19;23.00;99.90
4293;DHT22;2160;51.172;6.808;2023-05-07T17:54:46;23.00;99.90
4293;DHT22;2160;51.172;6.808;2023-05-07T17:57:13;23.00;99.90
4293;DHT22;2160;51.172;6.808;2023-05-07T17:59:40;22.90;99.90
4293;DHT22;2160;51.172;6.808;2023-05-07T18:02:07;22.90;99.90
4293;DHT22;2160;51.172;6.808;2023-05-07T18:04:52;22.90;99.90
4293;DHT22;2160;51.172;6.808;2023-05-07T18:07:19;22.80;99.90
4293;DHT22;2160;51.172;6.808;2023-05-07T18:09:46;22.80;99.90
4293;DHT22;2160;51.172;6.808;2023-05-07T18:12:13;22.80;99.90
4293;DHT22;2160;51.172;6.808;2023-05-07T18:14:40;22.80;99.90
4293;DHT22;2160;51.172;6.808;2023-05-07T18:17:07;22.80;99.90
4293;DHT22;2160;51.172;6.808;2023-05-07T18:19:34;22.80;99.90
4293;DHT22;2160;51.172;6.808;2023-05-07T18:22:03;22.70;99.90
4293;DHT22;2160;51.172;6.808;2023-05-07T18:24:29;22.70;99.90
4293;DHT22;2160;51.172;6.808;2023-05-07T18:26:56;22.70;99.90
4293;DHT22;2160;51.172;6.808;2023-05-07T18:29:23;22.70;99.90
4293;DHT22;2160;51.172;6.808;2023-05-07T18:31:50;22.70;99.90
4293;DHT22;2160;51.172;6.808;2023-05-07T18:34:17;22.70;99.90
4293;DHT22;2160;51.172;6.808;2023-05-07T18:36:44;22.70;99.90
4293;DHT22;2160;51.172;6.808;2023-05-07T18:39:22;22.60;99.90
4293;DHT22;2160;51.172;6.808;2023-05-07T18:41:52;22.70;99.90
4293;DHT22;2160;51.172;6.808;2023-05-07T18:44:19;22.60;99.90
4293;DHT22;2160;51.172;6.808;2023-05-07T18:46:46;22.60;99.90
4293;DHT22;2160;51.172;6.808;2023-05-07T18:49:13;22.50;99.90
4293;DHT22;2160;51.172;6.808;2023-05-07T18:51:40;22.50;99.90
4293;DHT22;2160;51.172;6.808;2023-05-07T18:54:07;22.50;99.90
4293;DHT22;2160;51.172;6.808;2023-05-07T18:56:38;22.40;99.90
4293;DHT22;2160;51.172;6.808;2023-05-07T18:59:04;22.40;99.90
4293;DHT22;2160;51.172;6.808;2023-05-07T19:01:31;22.30;99.90
4293;DHT22;2160;51.172;6.808;2023-05-07T19:03:58;22.30;99.90
4293;DHT22;2160;51.172;6.808;2023-05-07T19:06:26;22.30;99.90
4293;DHT22;2160;51.172;6.808;2023-05-07T19:08:53;22.20;99.90
4293;DHT22;2160;51.172;6.808;2023-05-07T19:11:20;22.10;99.90
4293;DHT22;2160;51.172;6.808;2023-05-07T19:13:48;22.10;99.90
4293;DHT22;2160;51.172;6.808;2023-05-07T19:16:15;22.10;99.90
4293;DHT22;2160;51.172;6.808;2023-05-07T19:18:42;22.10;99.90
4293;DHT22;2160;51.172;6.808;2023-05-07T19:21:10;22.00;99.90
4293;DHT22;2160;51.172;6.808;2023-05-07T19:23:36;22.00;99.90
4293;DHT22;2160;51.172;6.808;2023-05-07T19:26:07;22.00;99.90
4293;DHT22;2160;51.172;6.808;2023-05-07T19:28:34;22.00;99.90
4293;DHT22;2160;51.172;6.808;2023-05-07T19:31:03;22.00;99.90
4293;DHT22;2160;51.172;6.808;2023-05-07T19:33:30;22.00;99.90
4293;DHT22;2160;51.172;6.808;2023-05-07T19:35:57;21.90;99.90
4293;DHT22;2160;51.172;6.808;2023-05-07T19:38:24;21.90;99.90
4293;DHT22;2160;51.172;6.808;2023-05-07T19:40:52;21.90;99.90
4293;DHT22;2160;51.172;6.808;2023-05-07T19:43:19;21.90;99.90
4293;DHT22;2160;51.172;6.808;2023-05-07T19:45:46;21.80;99.90
4293;DHT22;2160;51.172;6.808;2023-05-07T19:48:15;21.80;99.90
4293;DHT22;2160;51.172;6.808;2023-05-07T19:50:46;21.80;99.90
4293;DHT22;2160;51.172;6.808;2023-05-07T19:53:13;21.80;99.90
4293;DHT22;2160;51.172;6.808;2023-05-07T19:55:40;21.80;99.90
4293;DHT22;2160;51.172;6.808;2023-05-07T19:58:07;21.80;99.90
4293;DHT22;2160;51.172;6.808;2023-05-07T20:00:34;21.70;99.90
4293;DHT22;2160;51.172;6.808;2023-05-07T20:03:01;21.70;99.90
4293;DHT22;2160;51.172;6.808;2023-05-07T20:05:29;21.70;99.90
4293;DHT22;2160;51.172;6.808;2023-05-07T20:07:56;21.70;99.90
4293;DHT22;2160;51.172;6.808;2023-05-07T20:10:24;21.70;99.90
4293;DHT22;2160;51.172;6.808;2023-05-07T20:12:51;21.60;99.90
4293;DHT22;2160;51.172;6.808;2023-05-07T20:15:18;21.60;99.90
4293;DHT22;2160;51.172;6.808;2023-05-07T20:17:45;21.50;99.90
4293;DHT22;2160;51.172;6.808;2023-05-07T20:20:12;21.50;99.90